createdAt,value
2023-03-26T00:00:13.512Z,8.59
2023-03-26T00:02:16.926Z,8.60
2023-03-26T00:04:21.864Z,8.53
2023-03-26T00:06:27.262Z,8.63
2023-03-26T00:08:30.473Z,8.62
2023-03-26T00:10:33.255Z,8.58
2023-03-26T00:12:36.368Z,8.61
2023-03-26T00:14:41.581Z,8.59
2023-03-26T00:16:44.662Z,8.66
2023-03-26T00:18:48.980Z,8.60
2023-03-26T00:20:51.863Z,8.59
2023-03-26T00:22:55.286Z,8.55
2023-03-26T00:24:59.385Z,8.47
2023-03-26T00:27:02.031Z,8.41
2023-03-26T00:29:06.907Z,8.38
2023-03-26T00:31:13.697Z,8.33
2023-03-26T00:33:20.036Z,8.33
2023-03-26T00:35:24.012Z,8.26
2023-03-26T00:37:26.871Z,8.29
2023-03-26T00:39:33.712Z,8.26
2023-03-26T00:41:37.286Z,8.26
2023-03-26T00:43:39.987Z,8.30
2023-03-26T00:45:42.719Z,8.30
2023-03-26T00:47:45.462Z,8.30
2023-03-26T00:49:48.886Z,8.27
2023-03-26T00:51:51.509Z,8.30
2023-03-26T00:53:54.112Z,8.29
2023-03-26T00:56:00.446Z,8.38
2023-03-26T08:59:38.155Z,13.92
2023-03-26T09:02:08.884Z,13.92
2023-03-26T09:04:41.316Z,13.73
2023-03-26T09:07:24.113Z,13.93
2023-03-26T09:09:55.501Z,14.23
2023-03-26T09:11:58.066Z,14.00
2023-03-26T09:14:20.706Z,14.40
2023-03-26T09:17:00.465Z,14.99
2023-03-26T09:19:15.496Z,14.87
2023-03-26T09:21:33.023Z,14.44
2023-03-26T09:23:35.883Z,14.37
2023-03-26T09:25:42.932Z,14.49
2023-03-26T09:28:06.880Z,14.23
2023-03-26T09:30:15.699Z,14.55
2023-03-26T09:32:24.676Z,14.43
2023-03-26T09:34:36.443Z,14.52
2023-03-26T09:37:05.886Z,14.46
2023-03-26T09:39:10.044Z,14.61
2023-03-26T09:41:44.228Z,14.55
2023-03-26T09:43:49.596Z,14.36
2023-03-26T09:45:55.478Z,14.48
2023-03-26T09:48:25.503Z,14.56
2023-03-26T09:51:05.277Z,14.28
2023-03-26T09:53:14.400Z,14.24
2023-03-26T09:55:35.010Z,14.14
2023-03-26T09:57:58.472Z,14.02
2023-03-26T10:00:15.874Z,13.96
2023-03-26T10:02:47.958Z,14.21
2023-03-26T10:05:24.799Z,14.19
2023-03-26T10:07:56.065Z,14.49
2023-03-26T10:10:11.694Z,14.69
2023-03-26T10:12:50.097Z,14.32
2023-03-26T10:14:52.728Z,14.39
2023-03-26T10:16:59.505Z,14.51
2023-03-26T10:19:07.919Z,14.57
2023-03-26T10:21:17.675Z,14.71
2023-03-26T10:23:49.738Z,14.88
2023-03-26T10:25:58.073Z,14.72
2023-03-26T10:28:18.355Z,14.85
2023-03-26T10:30:39.923Z,14.39
2023-03-26T10:33:17.900Z,14.10
2023-03-26T10:35:37.341Z,14.06
2023-03-26T10:37:58.160Z,12.68
2023-03-26T10:40:10.232Z,12.28
2023-03-26T10:42:16.814Z,11.99
2023-03-26T10:44:43.614Z,12.21
2023-03-26T10:47:18.140Z,12.60
2023-03-26T10:49:53.800Z,13.15
2023-03-26T10:51:59.371Z,13.08
2023-03-26T10:54:34.139Z,13.16
2023-03-26T10:56:49.461Z,13.46
2023-03-26T10:58:54.025Z,14.14
2023-03-26T11:01:13.771Z,14.61
2023-03-26T11:04:08.066Z,14.64
2023-03-26T11:06:45.720Z,14.54
2023-03-26T11:09:33.225Z,14.52
2023-03-26T11:11:45.490Z,14.52
2023-03-26T11:14:03.590Z,14.53
2023-03-26T11:16:24.766Z,13.91
2023-03-26T11:18:47.149Z,13.83
2023-03-26T11:21:19.770Z,13.84
2023-03-26T11:23:36.419Z,14.15
2023-03-26T11:26:03.324Z,14.98
2023-03-26T11:28:06.459Z,15.22
2023-03-26T11:30:17.224Z,16.37
2023-03-26T11:32:26.486Z,17.22
2023-03-26T11:34:42.088Z,17.04
2023-03-26T11:36:52.589Z,16.71
2023-03-26T11:38:57.663Z,16.23
2023-03-26T11:41:04.929Z,16.01
2023-03-26T11:43:13.525Z,15.85
2023-03-26T11:45:24.281Z,17.46
2023-03-26T11:47:31.537Z,20.67
2023-03-26T11:49:34.061Z,23.20
2023-03-26T11:51:38.873Z,25.74
2023-03-26T11:53:47.101Z,27.65
2023-03-26T11:56:01.434Z,26.77
2023-03-26T11:58:06.193Z,28.34
2023-03-26T12:00:19.617Z,28.94
2023-03-26T12:02:29.501Z,29.14
2023-03-26T12:04:39.032Z,28.91
2023-03-26T12:06:59.763Z,28.67
2023-03-26T12:09:03.608Z,25.16
2023-03-26T12:11:10.411Z,21.79
2023-03-26T12:13:39.301Z,20.22
2023-03-26T12:15:44.326Z,19.60
2023-03-26T12:17:51.454Z,20.91
2023-03-26T12:19:54.114Z,19.63
2023-03-26T12:21:58.014Z,18.47
2023-03-26T12:24:05.680Z,18.44
2023-03-26T12:26:15.343Z,18.99
2023-03-26T12:28:19.803Z,21.27
2023-03-26T12:30:28.160Z,24.04
2023-03-26T12:34:40.074Z,24.95
2023-03-26T12:36:49.719Z,22.29
2023-03-26T12:39:16.928Z,20.47
2023-03-26T12:44:44.554Z,19.23
2023-03-26T12:44:54.654Z,20.53
2023-03-26T12:47:54.509Z,18.59
2023-03-26T12:48:56.952Z,18.45
2023-03-26T12:51:11.816Z,18.05
2023-03-26T12:53:39.647Z,21.07
2023-03-26T12:55:49.052Z,21.63
2023-03-26T12:58:13.204Z,20.53
2023-03-26T13:00:34.970Z,19.49
2023-03-26T13:03:05.814Z,18.66
2023-03-26T13:05:23.865Z,18.08
2023-03-26T13:07:39.984Z,17.62
2023-03-26T13:09:57.725Z,17.29
2023-03-26T13:12:20.424Z,17.62
2023-03-26T13:14:56.454Z,17.94
2023-03-26T13:17:11.466Z,17.87
2023-03-26T13:19:19.706Z,19.77
2023-03-26T13:21:51.729Z,19.69
2023-03-26T13:23:56.219Z,20.58
2023-03-26T13:26:20.005Z,19.68
2023-03-26T13:28:52.715Z,20.66
2023-03-26T13:31:22.321Z,19.70
2023-03-26T13:33:51.754Z,18.39
2023-03-26T13:36:22.600Z,19.23
2023-03-26T13:38:58.643Z,20.90
2023-03-26T13:41:15.163Z,22.07
2023-03-26T13:43:32.168Z,20.71
2023-03-26T13:45:54.335Z,20.56
2023-03-26T13:48:01.164Z,19.94
2023-03-26T13:50:25.196Z,20.19
2023-03-26T13:52:38.504Z,18.86
2023-03-26T13:55:03.177Z,18.52
2023-03-26T13:57:12.916Z,18.37
2023-03-26T13:59:46.141Z,18.48
2023-03-26T14:01:57.200Z,18.18
2023-03-26T14:04:04.804Z,18.24
2023-03-26T14:06:15.037Z,18.09
2023-03-26T14:08:25.294Z,18.09
2023-03-26T14:10:31.441Z,17.68
2023-03-26T14:12:55.524Z,19.20
2023-03-26T14:15:20.305Z,20.61
2023-03-26T14:17:31.235Z,20.68
2023-03-26T14:19:55.207Z,19.71
2023-03-26T14:22:31.730Z,19.86
2023-03-26T14:24:40.771Z,20.80
2023-03-26T14:27:03.433Z,20.86
2023-03-26T14:29:28.275Z,19.04
2023-03-26T14:31:38.325Z,18.63
2023-03-26T14:33:44.058Z,19.76
2023-03-26T14:36:05.761Z,19.85
2023-03-26T14:38:34.138Z,19.47
2023-03-26T14:40:58.862Z,19.21
2023-03-26T14:43:42.420Z,18.67
2023-03-26T14:46:11.284Z,18.34
2023-03-26T14:48:26.068Z,17.74
2023-03-26T14:50:36.425Z,17.44
2023-03-26T14:52:50.845Z,17.32
2023-03-26T14:54:58.075Z,17.37
2023-03-26T14:57:38.724Z,17.13
2023-03-26T14:59:51.714Z,17.21
2023-03-26T15:02:25.283Z,17.42
2023-03-26T15:04:47.621Z,17.65
2023-03-26T15:07:25.753Z,17.32
2023-03-26T15:09:50.554Z,17.11
2023-03-26T15:12:16.020Z,17.02
2023-03-26T15:14:41.284Z,17.01
2023-03-26T15:17:08.279Z,16.88
2023-03-26T15:19:26.000Z,16.87
2023-03-26T15:22:06.914Z,16.84
2023-03-26T15:24:37.822Z,16.79
2023-03-26T15:27:18.759Z,16.81
2023-03-26T15:29:49.663Z,16.69
2023-03-26T15:32:30.360Z,16.69
2023-03-26T15:34:52.103Z,16.55
2023-03-26T15:37:11.704Z,16.45
2023-03-26T15:39:59.949Z,16.42
2023-03-26T15:42:36.122Z,16.38
2023-03-26T15:44:55.250Z,16.45
2023-03-26T15:47:06.973Z,16.54
2023-03-26T15:49:17.092Z,16.52
2023-03-26T15:51:48.086Z,16.40
2023-03-26T15:54:23.823Z,16.57
2023-03-26T15:57:18.201Z,16.58
2023-03-26T15:59:23.105Z,16.63
2023-03-26T16:01:49.433Z,16.57
2023-03-26T16:04:21.506Z,16.48
2023-03-26T16:06:34.022Z,16.30
2023-03-26T16:08:38.834Z,16.26
2023-03-26T16:10:58.792Z,16.15
2023-03-26T16:13:17.592Z,16.14
2023-03-26T16:15:34.065Z,16.11
2023-03-26T16:18:05.435Z,16.04
2023-03-26T16:20:33.706Z,15.93
2023-03-26T16:22:46.129Z,15.75
2023-03-26T16:25:34.587Z,15.63
2023-03-26T16:27:38.718Z,15.58
2023-03-26T16:30:00.618Z,15.39
2023-03-26T16:32:10.534Z,15.26
2023-03-26T16:34:27.315Z,15.28
2023-03-26T16:36:36.543Z,15.22
2023-03-26T16:39:12.792Z,15.20
2023-03-26T16:41:21.118Z,15.15
2023-03-26T16:43:42.874Z,15.05
2023-03-26T16:46:13.740Z,15.09
2023-03-26T16:48:22.974Z,15.09
2023-03-26T16:50:46.976Z,14.96
2023-03-26T16:53:24.693Z,14.84
2023-03-26T16:55:51.863Z,14.83
2023-03-26T16:58:29.444Z,14.71
2023-03-26T17:01:16.042Z,14.73
2023-03-26T17:03:46.900Z,14.61
2023-03-26T17:06:29.548Z,14.57
2023-03-26T17:08:56.922Z,14.47
2023-03-26T17:11:21.361Z,14.47
2023-03-26T17:14:01.539Z,14.49
2023-03-26T17:16:12.361Z,14.48
2023-03-26T17:18:43.733Z,14.41
2023-03-26T17:21:05.993Z,14.37
2023-03-26T17:23:39.083Z,14.31
2023-03-26T17:25:57.540Z,14.36
2023-03-26T17:28:23.003Z,14.41
2023-03-26T17:30:41.628Z,14.34
2023-03-26T17:33:06.471Z,14.30
2023-03-26T17:35:09.922Z,14.42
2023-03-26T17:37:22.630Z,14.38
2023-03-26T17:39:41.338Z,14.34
2023-03-26T17:42:18.139Z,14.42
2023-03-26T17:44:42.275Z,14.39
2023-03-26T17:46:48.520Z,14.40
2023-03-26T17:49:04.844Z,14.40
2023-03-26T17:51:27.642Z,14.37
2023-03-26T17:53:34.339Z,14.38
2023-03-26T17:55:42.258Z,14.37
2023-03-26T17:57:50.672Z,14.41
2023-03-26T17:59:59.800Z,14.37
2023-03-26T18:02:07.454Z,14.31
2023-03-26T18:07:26.018Z,14.29
2023-03-26T18:09:57.884Z,14.32
2023-03-26T18:12:38.473Z,14.33
2023-03-26T18:15:04.075Z,14.41
2023-03-26T18:17:08.103Z,14.48
2023-03-26T18:19:20.586Z,14.48
2023-03-26T18:21:38.674Z,14.61
2023-03-26T18:23:48.186Z,14.66
2023-03-26T18:26:14.194Z,14.59
2023-03-26T18:28:18.404Z,14.51
2023-03-26T18:30:23.611Z,14.64
2023-03-26T18:32:34.976Z,14.57
2023-03-26T18:34:50.525Z,14.51
2023-03-26T18:37:15.501Z,14.59
2023-03-26T18:39:21.179Z,14.53
2023-03-26T18:41:31.800Z,14.52
2023-03-26T18:43:44.130Z,14.50
2023-03-26T18:45:54.892Z,14.40
2023-03-26T18:48:08.423Z,14.41
2023-03-26T18:50:17.883Z,14.40
2023-03-26T18:52:22.935Z,14.52
2023-03-26T18:54:32.515Z,14.49
2023-03-26T18:56:47.819Z,14.37
2023-03-26T18:58:58.291Z,14.34
2023-03-26T19:01:20.042Z,14.45
2023-03-26T19:03:32.769Z,14.46
2023-03-26T19:05:37.536Z,14.31
2023-03-26T19:07:46.399Z,14.29
2023-03-26T19:09:52.218Z,14.39
2023-03-26T19:11:58.615Z,14.31
2023-03-26T19:14:16.820Z,14.17
2023-03-26T19:16:34.500Z,14.12
2023-03-26T19:18:44.273Z,14.22
2023-03-26T19:20:52.091Z,14.17
2023-03-26T19:22:57.982Z,13.97
2023-03-26T19:25:05.729Z,14.10
2023-03-26T19:27:11.850Z,14.11
2023-03-26T19:29:24.864Z,13.93
2023-03-26T19:31:35.346Z,13.89
2023-03-26T19:33:42.601Z,13.84
2023-03-26T19:35:54.386Z,13.84
2023-03-26T19:37:57.626Z,13.87
2023-03-26T19:40:22.391Z,13.91
2023-03-26T19:42:43.743Z,13.92
2023-03-26T19:44:49.022Z,13.83
2023-03-26T19:47:01.779Z,13.83
2023-03-26T19:49:05.203Z,13.59
2023-03-26T19:51:23.674Z,13.87
2023-03-26T19:53:36.088Z,13.64
2023-03-26T19:55:45.960Z,13.61
2023-03-26T19:57:52.350Z,13.63
2023-03-26T19:59:57.506Z,13.70
2023-03-26T20:02:00.586Z,13.64
2023-03-26T20:04:07.216Z,13.70
2023-03-26T20:06:15.966Z,13.73
2023-03-26T20:08:20.315Z,13.55
2023-03-26T20:10:24.963Z,13.56
2023-03-26T20:12:28.405Z,13.51
2023-03-26T20:14:33.150Z,13.43
2023-03-26T20:16:38.907Z,13.47
2023-03-26T20:18:44.167Z,13.52
2023-03-26T20:20:47.182Z,13.42
2023-03-26T20:22:51.948Z,13.30
2023-03-26T20:25:00.808Z,13.34
2023-03-26T20:27:04.608Z,13.20
2023-03-26T20:29:08.511Z,13.29
2023-03-26T20:31:17.734Z,13.27
2023-03-26T20:33:27.087Z,13.21
2023-03-26T20:35:36.252Z,13.50
2023-03-26T20:37:39.872Z,13.28
2023-03-26T20:39:43.194Z,13.07
2023-03-26T20:41:48.795Z,13.09
2023-03-26T20:43:52.660Z,13.17
2023-03-26T20:45:56.189Z,13.20
2023-03-26T20:47:59.527Z,13.17
2023-03-26T20:50:02.331Z,13.32
2023-03-26T20:52:05.168Z,13.37
2023-03-26T20:54:22.229Z,13.16
2023-03-26T20:56:25.142Z,12.97
2023-03-26T20:58:31.033Z,12.97
2023-03-26T21:00:35.192Z,12.82
2023-03-26T21:02:37.738Z,12.83
2023-03-26T21:04:40.166Z,12.87
2023-03-26T21:06:43.574Z,12.89
2023-03-26T21:08:46.162Z,12.83
2023-03-26T21:10:48.916Z,12.87
2023-03-26T21:13:08.376Z,12.98
2023-03-26T21:15:20.843Z,12.94
2023-03-26T21:17:26.299Z,12.91
2023-03-26T21:19:29.245Z,12.78
2023-03-26T21:21:43.818Z,12.79
2023-03-26T21:23:59.345Z,12.94
2023-03-26T21:26:17.974Z,12.92
2023-03-26T21:28:39.405Z,12.79
2023-03-26T21:30:44.818Z,12.63
2023-03-26T21:32:47.952Z,12.41
2023-03-26T21:34:58.453Z,12.28
2023-03-26T21:37:02.352Z,12.31
2023-03-26T21:39:06.512Z,12.19
2023-03-26T21:41:31.152Z,12.32
2023-03-26T21:43:33.549Z,12.28
2023-03-26T21:45:36.685Z,12.29
2023-03-26T21:47:39.687Z,12.11
2023-03-26T21:49:42.244Z,11.95
2023-03-26T21:51:45.361Z,11.76
2023-03-26T21:53:48.932Z,11.78
2023-03-26T21:55:54.027Z,11.72
2023-03-26T21:58:05.823Z,11.51
2023-03-26T22:00:15.402Z,11.57
2023-03-26T22:02:33.680Z,11.71
2023-03-26T22:04:51.904Z,11.68
2023-03-26T22:07:26.103Z,11.66
2023-03-26T22:09:36.296Z,11.70
2023-03-26T22:11:41.555Z,11.72
2023-03-26T22:13:44.116Z,11.72
2023-03-26T22:15:46.826Z,11.83
2023-03-26T22:17:54.134Z,11.86
2023-03-26T22:19:56.853Z,11.90
2023-03-26T22:22:00.137Z,11.88
2023-03-26T22:24:04.171Z,12.10
2023-03-26T22:26:07.222Z,11.93
2023-03-26T22:28:10.090Z,11.71
2023-03-26T22:30:14.044Z,11.55
2023-03-26T22:32:16.468Z,11.60
2023-03-26T22:34:19.889Z,11.19
2023-03-26T22:36:23.749Z,11.25
2023-03-26T22:38:26.293Z,11.17
2023-03-26T22:40:29.061Z,10.91
2023-03-26T22:42:31.579Z,10.93
2023-03-26T22:44:33.982Z,10.58
2023-03-26T22:46:36.715Z,10.56
2023-03-26T22:48:40.787Z,10.41
2023-03-26T22:50:43.743Z,10.36
2023-03-26T22:52:46.382Z,10.31
2023-03-26T22:54:48.811Z,10.08
2023-03-26T22:56:52.439Z,10.07
2023-03-26T22:58:55.130Z,9.99
2023-03-26T23:01:08.292Z,10.07
2023-03-26T23:03:10.806Z,9.93
2023-03-26T23:05:14.524Z,9.90
2023-03-26T23:07:16.799Z,9.91
2023-03-26T23:09:19.753Z,9.86
2023-03-26T23:11:23.295Z,9.81
2023-03-26T23:13:26.089Z,9.71
2023-03-26T23:15:28.426Z,9.74
2023-03-26T23:17:36.134Z,9.68
2023-03-26T23:19:39.124Z,9.62
2023-03-26T23:21:41.524Z,9.59
2023-03-26T23:23:44.798Z,9.52
2023-03-26T23:25:47.712Z,9.60
2023-03-26T23:27:50.688Z,9.63
2023-03-26T23:29:53.425Z,9.72
2023-03-26T23:31:56.118Z,9.67
2023-03-26T23:33:58.635Z,9.65
2023-03-26T23:36:08.723Z,9.62
2023-03-26T23:38:13.058Z,9.50
2023-03-26T23:40:15.796Z,9.44
